Time;durP1;ratioP1;P1;durP2;ratioP2;P2;SDS_P1;SDS_P2;PMS_P1;PMS_P2;Temp;Humidity;BMP_temperature;BMP_pressure;BME280_temperature;BME280_humidity;BME280_pressure;Samples;Min_cycle;Max_cycle;Signal;HPM_P1;HPM_P2
2022/06/01 00:00:33;;;;;;;2.17;1.23;;;;;;;15.89;58.22;99523.41;5062109;28;20025;-88
2022/06/01 00:03:00;;;;;;;4.00;1.48;;;;;;;15.77;58.38;99524.03;5051349;28;20032;-95
2022/06/01 00:05:26;;;;;;;1.58;1.40;;;;;;;15.78;58.67;99520.31;5050312;28;20033;-90
2022/06/01 00:07:51;;;;;;;2.45;1.70;;;;;;;15.79;59.22;99516.59;5067263;28;20029;-90
2022/06/01 00:10:17;;;;;;;1.42;1.33;;;;;;;15.73;59.13;99508.22;5068165;28;20028;-89
2022/06/01 00:12:43;;;;;;;3.47;1.60;;;;;;;15.76;58.89;99523.19;5049711;28;20028;-92
2022/06/01 00:15:11;;;;;;;1.60;1.50;;;;;;;15.80;58.28;99527.19;5047572;28;20043;-95
2022/06/01 00:17:36;;;;;;;1.50;1.40;;;;;;;15.77;58.53;99524.03;5048177;28;20304;-90
2022/06/01 00:20:02;;;;;;;1.80;1.60;;;;;;;15.73;59.07;99526.25;5054633;28;20395;-94
2022/06/01 00:22:28;;;;;;;2.10;1.70;;;;;;;15.76;58.51;99523.19;5053296;28;20033;-91
2022/06/01 00:24:53;;;;;;;1.85;1.67;;;;;;;15.71;59.01;99526.44;5044246;28;20116;-93
2022/06/01 00:27:21;;;;;;;2.13;1.50;;;;;;;15.69;58.99;99538.41;5059909;28;20025;-90
2022/06/01 00:29:47;;;;;;;3.38;1.90;;;;;;;15.66;58.79;99541.47;5053821;28;20522;-86
2022/06/01 00:32:14;;;;;;;1.55;1.45;;;;;;;15.64;59.48;99521.94;5044508;28;20033;-94
2022/06/01 00:34:41;;;;;;;2.58;1.70;;;;;;;15.62;59.23;99523.97;5039420;28;20124;-93
2022/06/01 00:37:08;;;;;;;1.63;1.48;;;;;;;15.59;59.02;99524.31;5032950;28;20024;-92
2022/06/01 00:39:34;;;;;;;2.92;1.70;;;;;;;15.55;59.07;99523.81;5040795;28;20064;-93
2022/06/01 00:42:12;;;;;;;2.47;1.63;;;;;;;15.53;59.69;99531.25;5047565;28;20036;-88
2022/06/01 00:44:38;;;;;;;1.73;1.40;;;;;;;15.64;59.22;99530.88;5060338;28;20029;-89
2022/06/01 00:47:04;;;;;;;2.00;1.48;;;;;;;15.56;59.33;99540.81;5045873;28;20123;-96
2022/06/01 00:49:29;;;;;;;2.92;1.80;;;;;;;15.60;58.96;99543.00;5046990;28;20037;-86
2022/06/01 00:51:54;;;;;;;2.28;1.60;;;;;;;15.63;59.62;99544.53;5057064;28;20029;-96
2022/06/01 00:54:21;;;;;;;1.55;1.45;;;;;;;15.63;59.36;99539.97;5061156;28;20036;-85
2022/06/01 00:56:50;;;;;;;2.88;1.65;;;;;;;15.67;58.82;99543.97;5042376;28;20025;-91
2022/06/01 00:59:17;;;;;;;;;;;;;;;15.66;59.18;99538.78;5060989;28;20418;-96
2022/06/01 01:01:45;;;;;;;2.00;1.60;;;;;;;15.53;59.36;99527.69;5040528;28;19917;-96
2022/06/01 01:04:11;;;;;;;1.92;1.77;;;;;;;15.48;59.80;99528.25;5057026;28;20036;-85
2022/06/01 01:06:39;;;;;;;2.45;1.50;;;;;;;15.46;60.06;99532.13;5057623;28;20479;-87
2022/06/01 01:09:05;;;;;;;2.65;1.80;;;;;;;15.40;60.05;99536.41;5035544;28;20021;-94
2022/06/01 01:11:49;;;;;;;2.20;1.50;;;;;;;15.32;59.74;99536.44;5032333;28;20033;-86
2022/06/01 01:14:17;;;;;;;2.08;1.52;;;;;;;15.32;60.23;99534.59;5058433;28;20025;-92
2022/06/01 01:16:42;;;;;;;2.38;1.70;;;;;;;15.35;60.40;99538.78;5061278;28;20033;-89
2022/06/01 01:21:50;;;;;;;3.15;1.67;;;;;;;15.34;60.34;99537.13;5407726;22;20048;-96
2022/06/01 01:24:53;;;;;;;2.45;1.70;;;;;;;15.29;60.33;99526.03;5070931;28;20103;-96
2022/06/01 01:27:19;;;;;;;1.83;1.50;;;;;;;15.29;60.21;99526.03;5082110;28;20030;-92
2022/06/01 01:29:45;;;;;;;1.50;1.40;;;;;;;15.20;60.54;99536.03;5062218;28;20032;-96
2022/06/01 01:32:12;;;;;;;1.90;1.80;;;;;;;15.16;60.03;99534.72;5067053;28;20036;-95
2022/06/01 01:34:39;;;;;;;2.77;1.90;;;;;;;15.16;60.35;99523.09;5069677;28;20036;-85
2022/06/01 01:37:09;;;;;;;3.05;1.73;;;;;;;15.18;60.33;99516.50;5072949;28;20024;-93
2022/06/01 01:39:36;;;;;;;2.35;1.80;;;;;;;15.08;60.24;99522.09;5064488;28;20056;-92
2022/06/01 01:42:02;;;;;;;1.85;1.58;;;;;;;15.17;60.03;99519.38;5061839;28;20028;-96
2022/06/01 01:44:36;;;;;;;1.90;1.80;;;;;;;15.09;60.17;99522.94;5087854;28;20037;-94
2022/06/01 01:47:02;;;;;;;1.90;1.70;;;;;;;15.09;60.28;99514.84;5083664;28;20043;-89
2022/06/01 01:49:30;;;;;;;4.45;1.95;;;;;;;15.11;60.18;99518.22;5078457;28;20024;-92
2022/06/01 01:51:58;;;;;;;2.53;1.70;;;;;;;15.08;60.08;99508.63;5073338;28;20034;-94
2022/06/01 01:54:34;;;;;;;2.07;1.87;;;;;;;14.99;60.50;99514.25;5057536;28;20269;-93
2022/06/01 01:57:18;;;;;;;2.13;1.83;;;;;;;15.06;60.71;99516.06;5072455;28;20445;-88
2022/06/01 01:59:54;;;;;;;2.25;1.80;;;;;;;14.98;60.06;99529.56;5073174;28;20033;-94
2022/06/01 02:02:29;;;;;;;1.83;1.60;;;;;;;14.96;60.13;99530.75;5073791;28;20025;-95
2022/06/01 02:07:55;;;;;;;2.88;1.85;;;;;;;14.94;60.19;99535.50;5074704;28;20174;-93
2022/06/01 02:13:05;;;;;;;2.13;1.80;;;;;;;14.96;60.44;99538.84;5073269;28;20027;-91
2022/06/01 02:15:34;;;;;;;3.40;2.22;;;;;;;14.91;60.30;99534.00;5057545;28;20040;-94
2022/06/01 02:18:04;;;;;;;3.22;1.60;;;;;;;14.93;60.13;99536.50;5073733;28;20067;-91
2022/06/01 02:20:40;;;;;;;2.78;1.92;;;;;;;14.94;60.01;99536.31;5057389;28;20067;-92
2022/06/01 02:23:09;;;;;;;2.75;1.70;;;;;;;14.89;60.42;99536.03;5052930;28;20086;-84
2022/06/01 02:25:34;;;;;;;2.22;1.90;;;;;;;14.87;60.01;99529.97;5053933;28;20036;-84
2022/06/01 02:28:00;;;;;;;1.98;1.65;;;;;;;14.85;60.49;99528.47;5041579;28;20645;-93
2022/06/01 02:30:33;;;;;;;2.33;1.77;;;;;;;14.78;59.88;99529.19;5076058;28;20520;-88
2022/06/01 02:33:00;;;;;;;2.60;2.08;;;;;;;14.79;60.15;99533.53;5061278;28;20028;-94
2022/06/01 02:35:28;;;;;;;1.98;1.77;;;;;;;14.76;60.43;99533.91;5063010;28;20021;-84
2022/06/01 02:37:55;;;;;;;1.67;1.58;;;;;;;14.75;59.92;99542.97;5060831;28;20021;-93
2022/06/01 02:40:23;;;;;;;1.95;1.65;;;;;;;14.75;60.08;99536.75;5053750;28;20036;-94
2022/06/01 02:42:50;;;;;;;1.85;1.73;;;;;;;14.75;59.88;99542.16;5061083;28;20026;-95
2022/06/01 02:45:21;;;;;;;1.98;1.70;;;;;;;14.71;59.77;99536.28;5061081;28;20032;-83
2022/06/01 02:47:47;;;;;;;2.72;1.70;;;;;;;14.68;60.11;99533.09;5078419;28;20115;-90
2022/06/01 02:50:22;;;;;;;4.05;1.92;;;;;;;14.63;60.09;99540.81;5060929;28;20036;-96
2022/06/01 02:52:48;;;;;;;2.35;1.80;;;;;;;14.63;60.46;99536.28;5060909;28;20021;-90
2022/06/01 02:55:14;;;;;;;3.80;2.00;;;;;;;14.63;60.70;99536.28;5058326;28;20028;-94
2022/06/01 02:57:41;;;;;;;2.15;1.80;;;;;;;14.61;60.28;99537.47;5059059;28;20032;-88
2022/06/01 03:00:17;;;;;;;2.17;2.00;;;;;;;14.57;60.47;99542.38;5074777;28;20096;-89
2022/06/01 03:02:43;;;;;;;2.53;1.83;;;;;;;14.57;60.68;99542.38;5048891;28;20501;-91
2022/06/01 03:05:09;;;;;;;2.20;1.80;;;;;;;14.60;60.54;99542.00;5074219;28;20294;-94
2022/06/01 03:07:34;;;;;;;2.45;2.20;;;;;;;14.57;59.95;99550.44;5075593;28;20024;-96
2022/06/01 03:09:59;;;;;;;2.53;2.25;;;;;;;14.50;59.75;99554.84;5061006;28;20028;-85
2022/06/01 03:12:25;;;;;;;2.70;2.40;;;;;;;14.54;59.97;99549.94;5076162;28;20032;-93
2022/06/01 03:14:50;;;;;;;2.33;2.13;;;;;;;14.52;60.32;99560.03;5053368;28;20028;-91
2022/06/01 03:17:15;;;;;;;2.83;2.10;;;;;;;14.53;59.90;99559.88;5074233;28;20370;-96
2022/06/01 03:19:41;;;;;;;3.45;2.50;;;;;;;14.45;59.91;99559.91;5077353;28;20589;-89
2022/06/01 03:22:06;;;;;;;2.72;2.42;;;;;;;14.44;60.21;99563.59;5076956;28;20037;-95
2022/06/01 03:24:32;;;;;;;5.22;2.60;;;;;;;14.43;59.82;99560.06;5061784;28;20040;-94
2022/06/01 03:26:57;;;;;;;5.03;2.92;;;;;;;14.43;59.51;99568.16;5061789;28;20436;-84
2022/06/01 03:29:24;;;;;;;3.30;2.60;;;;;;;14.40;59.53;99562.25;5064020;28;20025;-94
2022/06/01 03:31:50;;;;;;;2.90;2.60;;;;;;;14.38;59.70;99569.63;5063594;28;20028;-96
2022/06/01 03:34:16;;;;;;;4.63;2.83;;;;;;;14.34;59.67;99566.47;5065323;28;20032;-87
2022/06/01 03:36:42;;;;;;;3.60;2.55;;;;;;;14.33;60.08;99567.47;5062070;28;20036;-90
2022/06/01 03:39:07;;;;;;;3.65;2.75;;;;;;;14.29;59.75;99558.06;5078809;28;20032;-95
2022/06/01 03:41:32;;;;;;;4.70;2.30;;;;;;;14.30;59.90;99566.97;5061410;28;20028;-85
2022/06/01 03:46:42;;;;;;;4.35;2.83;;;;;;;14.29;59.38;99566.13;5079245;28;20039;-86
2022/06/01 03:49:07;;;;;;;4.18;2.80;;;;;;;14.25;59.25;99563.97;5062800;28;20474;-89
2022/06/01 03:51:32;;;;;;;3.67;2.50;;;;;;;14.23;59.52;99561.44;5080163;28;20033;-85
2022/06/01 03:53:57;;;;;;;4.55;2.58;;;;;;;14.23;59.66;99563.28;5063251;28;20035;-96
2022/06/01 03:56:23;;;;;;;4.05;2.40;;;;;;;14.21;59.56;99568.84;5060265;28;20044;-85
2022/06/01 03:58:50;;;;;;;3.40;2.53;;;;;;;14.22;59.53;99577.75;5056702;28;20029;-96
2022/06/01 04:01:15;;;;;;;3.55;2.47;;;;;;;14.15;59.54;99575.72;5054089;28;20033;-96
2022/06/01 04:03:41;;;;;;;3.08;2.20;;;;;;;14.12;59.63;99576.06;5052920;28;20029;-87
2022/06/01 04:06:06;;;;;;;3.08;2.17;;;;;;;14.11;60.47;99581.59;5053923;28;20021;-96
2022/06/01 04:08:31;;;;;;;3.40;2.00;;;;;;;14.14;59.86;99587.47;5053388;28;21064;-96
2022/06/01 04:10:57;;;;;;;3.60;2.03;;;;;;;14.13;60.12;99580.41;5053489;28;20036;-96
2022/06/01 04:13:24;;;;;;;2.72;2.08;;;;;;;14.16;60.15;99585.47;5053520;28;20036;-96
2022/06/01 04:15:50;;;;;;;2.72;1.80;;;;;;;14.12;59.99;99594.03;5043889;28;20471;-96
2022/06/01 04:18:15;;;;;;;3.03;2.25;;;;;;;14.09;59.82;99599.75;5054644;28;20020;-90
2022/06/01 04:21:12;;;;;;;3.50;2.40;;;;;;;14.04;60.08;99592.19;5463741;22;20032;31
2022/06/01 04:23:38;;;;;;;2.20;1.95;;;;;;;14.03;60.02;99589.69;4933614;29;20561;-89
2022/06/01 04:26:03;;;;;;;2.53;1.75;;;;;;;14.05;60.07;99591.19;4926184;29;20133;-96
2022/06/01 04:28:28;;;;;;;3.08;1.95;;;;;;;14.06;60.16;99578.59;4942837;29;20032;-87
2022/06/01 04:30:54;;;;;;;2.58;1.90;;;;;;;14.06;60.60;99582.13;4963047;28;20035;-95
2022/06/01 04:33:19;;;;;;;2.17;1.95;;;;;;;14.08;59.87;99581.94;4952376;28;20070;-89
2022/06/01 04:35:44;;;;;;;3.60;1.98;;;;;;;14.06;60.75;99583.97;4955908;28;20042;-96
2022/06/01 04:38:13;;;;;;;2.33;1.90;;;;;;;14.06;60.69;99579.41;4957026;28;20072;-93
2022/06/01 04:40:49;;;;;;;3.17;2.08;;;;;;;14.06;61.14;99587.50;4960632;28;20572;-96
2022/06/01 04:43:17;;;;;;;2.90;2.30;;;;;;;14.08;61.18;99588.16;4961954;28;20031;-96
2022/06/01 04:45:42;;;;;;;3.40;1.92;;;;;;;14.04;60.72;99580.59;4923612;29;20040;-93
2022/06/01 04:48:07;;;;;;;3.03;2.03;;;;;;;14.11;60.86;99582.44;4944620;29;20028;-84
2022/06/01 04:50:33;;;;;;;3.92;1.90;;;;;;;14.10;61.62;99575.38;4929277;29;20082;-89
2022/06/01 04:52:59;;;;;;;3.08;2.25;;;;;;;14.08;61.12;99581.94;4933038;29;20039;-94
2022/06/01 04:55:25;;;;;;;3.22;2.20;;;;;;;14.06;61.47;99590.19;4924931;29;20036;-90
2022/06/01 04:57:50;;;;;;;4.38;2.42;;;;;;;14.06;62.09;99587.50;4916233;29;20504;-87
2022/06/01 05:00:16;;;;;;;3.65;2.55;;;;;;;14.08;61.49;99590.84;4930291;29;20067;-89
2022/06/01 05:02:42;;;;;;;2.78;2.17;;;;;;;14.15;61.70;99586.47;4916524;29;20117;-91
2022/06/01 05:05:08;;;;;;;4.78;2.15;;;;;;;14.17;61.97;99589.81;4918232;29;20228;-85
2022/06/01 05:07:34;;;;;;;4.22;2.17;;;;;;;14.16;61.81;99585.47;4916424;29;20027;-88
2022/06/01 05:09:59;;;;;;;4.22;2.30;;;;;;;14.22;61.84;99583.97;4917316;29;20044;-92
2022/06/01 05:12:24;;;;;;;3.30;2.00;;;;;;;14.19;61.95;99584.31;4916179;29;20047;-93
2022/06/01 05:14:50;;;;;;;3.45;1.90;;;;;;;14.23;62.06;99582.97;4916840;29;20036;-96
2022/06/01 05:17:15;;;;;;;2.72;2.00;;;;;;;14.18;61.95;99578.06;4916507;29;20031;-89
2022/06/01 05:19:40;;;;;;;2.53;2.08;;;;;;;14.18;62.69;99582.59;4915912;29;20078;-94
2022/06/01 05:22:06;;;;;;;4.25;2.53;;;;;;;14.18;62.49;99588.81;4915890;29;20044;-90
2022/06/01 05:24:31;;;;;;;5.28;2.10;;;;;;;14.24;62.53;99594.56;4915577;29;20035;-87
2022/06/01 05:26:56;;;;;;;3.53;2.25;;;;;;;14.24;62.40;99590.00;4915902;29;20363;-86
2022/06/01 05:29:22;;;;;;;2.70;2.00;;;;;;;14.20;62.26;99588.69;4915135;29;20063;-94
2022/06/01 05:31:48;;;;;;;4.28;2.28;;;;;;;14.25;62.71;99589.00;4931085;29;20462;-86
2022/06/01 05:34:14;;;;;;;3.97;2.30;;;;;;;14.24;62.54;99584.63;4913589;29;20042;-87
2022/06/01 05:36:39;;;;;;;3.78;2.33;;;;;;;14.26;63.32;99584.47;4972641;23;20082;-87
2022/06/01 05:39:05;;;;;;;4.75;2.20;;;;;;;14.25;62.49;99585.47;5031810;23;20091;-88
2022/06/01 05:41:30;;;;;;;3.17;1.90;;;;;;;14.28;63.56;99595.88;5024101;28;20488;-88
2022/06/01 05:43:56;;;;;;;2.40;1.90;;;;;;;14.34;63.03;99592.53;5017922;28;20296;-87
2022/06/01 05:46:27;;;;;;;4.80;2.25;;;;;;;14.50;63.11;99589.81;5028095;28;20040;-87
2022/06/01 05:48:52;;;;;;;4.10;2.40;;;;;;;14.51;62.63;99591.50;5036257;28;21370;-87
2022/06/01 05:51:18;;;;;;;4.32;2.33;;;;;;;14.48;62.70;99594.53;5015846;28;20029;-86
2022/06/01 05:53:48;;;;;;;5.05;2.30;;;;;;;14.54;62.41;99596.53;5034828;23;20091;-90
2022/06/01 05:56:17;;;;;;;4.00;2.40;;;;;;;14.61;62.40;99596.69;5064998;28;20168;-86
2022/06/01 05:58:47;;;;;;;3.85;2.38;;;;;;;14.55;62.50;99600.91;5066286;28;20020;-87
2022/06/01 06:01:13;;;;;;;3.40;2.15;;;;;;;14.53;63.29;99594.84;5075346;28;20092;-88
2022/06/01 06:03:39;;;;;;;4.63;2.10;;;;;;;14.51;63.21;99602.25;5048556;28;20063;-87
2022/06/01 06:06:12;;;;;;;3.10;2.30;;;;;;;14.52;63.15;99598.56;5061951;28;20049;-87
2022/06/01 06:08:40;;;;;;;4.28;2.20;;;;;;;14.53;63.28;99594.00;5047390;28;20025;-87
2022/06/01 06:11:06;;;;;;;4.20;2.65;;;;;;;14.58;63.34;99603.25;5058090;28;20041;-87
2022/06/01 06:13:53;;;;;;;4.38;2.28;;;;;;;14.57;63.56;99600.72;5067265;28;20024;-87
2022/06/01 06:16:19;;;;;;;4.68;2.60;;;;;;;14.56;63.66;99599.03;5084947;28;20036;-87
2022/06/01 06:18:45;;;;;;;4.88;2.40;;;;;;;14.62;63.96;99607.28;5069545;28;20049;-90
2022/06/01 06:21:11;;;;;;;3.67;2.40;;;;;;;14.69;64.22;99605.59;5061576;28;20024;-88
2022/06/01 06:23:37;;;;;;;4.03;2.28;;;;;;;14.73;64.14;99603.41;5042291;28;20053;-87
2022/06/01 06:26:03;;;;;;;4.32;2.28;;;;;;;14.82;64.57;99596.97;5023764;28;20043;-86
2022/06/01 06:28:29;;;;;;;3.15;2.17;;;;;;;14.87;64.26;99605.34;5032884;28;20021;-87
2022/06/01 06:30:55;;;;;;;3.65;2.13;;;;;;;14.97;64.17;99608.69;5027559;28;20027;-86
2022/06/01 06:33:20;;;;;;;5.28;2.22;;;;;;;14.94;63.99;99605.50;5046589;28;20030;-87
2022/06/01 06:35:56;;;;;;;3.85;2.40;;;;;;;14.94;64.67;99605.50;5047438;28;20065;-87
2022/06/01 06:38:27;;;;;;;3.70;2.38;;;;;;;14.92;64.65;99611.06;5024947;28;20061;-86
2022/06/01 06:40:54;;;;;;;5.72;2.60;;;;;;;14.85;64.27;99615.47;5045983;28;20551;-86
2022/06/01 06:43:23;;;;;;;4.90;2.55;;;;;;;14.96;64.65;99615.06;5060864;28;20037;-88
2022/06/01 06:46:01;;;;;;;3.05;2.05;;;;;;;15.02;64.35;99611.69;5023500;28;20033;-86
2022/06/01 06:48:27;;;;;;;3.17;2.33;;;;;;;15.07;64.22;99617.38;5062584;28;20027;-86
2022/06/01 06:50:52;;;;;;;5.07;2.10;;;;;;;15.11;64.85;99625.94;5044195;28;20089;-86
2022/06/01 06:53:19;;;;;;;3.75;2.55;;;;;;;14.99;64.49;99620.13;5043795;28;20030;-87
2022/06/01 06:55:45;;;;;;;4.07;2.42;;;;;;;15.08;64.68;99620.91;5027514;23;20109;-87
2022/06/01 06:58:11;;;;;;;2.60;2.13;;;;;;;15.08;64.74;99629.00;5034796;28;20442;-87
2022/06/01 07:00:37;;;;;;;2.47;2.28;;;;;;;15.10;64.64;99624.28;5040836;28;20033;-87
2022/06/01 07:03:03;;;;;;;7.28;2.50;;;;;;;15.05;64.41;99622.09;5059471;28;20017;-87
2022/06/01 07:08:13;;;;;;;3.35;2.05;;;;;;;15.12;65.00;99630.31;5058468;28;20085;-87
2022/06/01 07:10:39;;;;;;;4.28;2.00;;;;;;;15.16;64.89;99631.69;5042047;28;20037;-87
2022/06/01 07:13:04;;;;;;;3.47;2.10;;;;;;;15.18;64.57;99620.72;5054486;28;20028;-86
2022/06/01 07:15:30;;;;;;;3.83;2.22;;;;;;;15.16;64.98;99629.00;5038667;28;20025;-87
2022/06/01 07:20:21;;;;;;;3.13;2.00;;;;;;;15.21;65.00;99629.28;5047563;22;20068;-87
2022/06/01 07:22:47;;;;;;;3.47;2.13;;;;;;;15.21;65.31;99626.59;5017089;28;20483;-86
2022/06/01 07:25:12;;;;;;;3.65;1.92;;;;;;;15.24;64.71;99633.50;5017872;28;20099;-86
2022/06/01 07:27:37;;;;;;;2.80;2.30;;;;;;;15.35;64.95;99638.47;5018022;28;20033;-87
2022/06/01 07:30:06;;;;;;;5.20;2.42;;;;;;;15.30;64.90;99641.72;5018579;28;20384;-86
2022/06/01 07:32:31;;;;;;;2.60;1.60;;;;;;;15.30;65.12;99635.47;5051646;28;20022;-86
2022/06/01 07:34:58;;;;;;;4.53;1.73;;;;;;;15.35;64.94;99644.72;5033646;28;20037;-87
2022/06/01 07:43:08;;;;;;;2.85;1.60;;;;;;;15.30;64.79;99654.34;5067213;28;20297;-86
2022/06/01 07:45:43;;;;;;;6.15;2.05;;;;;;;15.22;65.44;99644.44;5032279;28;20092;-87
2022/06/01 07:48:11;;;;;;;3.47;2.05;;;;;;;15.25;65.48;99643.25;5034306;28;20032;-86
2022/06/01 07:50:37;;;;;;;5.15;2.40;;;;;;;15.29;64.92;99641.88;5049186;28;20032;-88
2022/06/01 07:53:05;;;;;;;3.90;2.10;;;;;;;15.25;65.30;99644.09;5087411;23;20081;-86
2022/06/01 07:55:31;;;;;;;3.47;1.95;;;;;;;15.27;65.50;99644.75;5022731;28;20026;-88
2022/06/01 07:57:56;;;;;;;2.08;1.88;;;;;;;15.32;65.09;99642.38;5021185;28;20051;-88
2022/06/01 08:00:22;;;;;;;4.18;2.28;;;;;;;15.27;64.93;99644.75;5011224;28;20033;-87
2022/06/01 08:02:48;;;;;;;2.40;1.55;;;;;;;15.34;64.47;99643.03;5039521;28;20025;-87
2022/06/01 08:05:16;;;;;;;3.70;1.60;;;;;;;15.24;64.83;99642.41;5031857;28;20048;-87
2022/06/01 08:07:43;;;;;;;5.32;1.90;;;;;;;15.31;65.21;99643.38;5023757;28;20479;-87
2022/06/01 08:10:13;;;;;;;3.28;1.80;;;;;;;15.32;64.83;99646.91;5025324;28;20037;-87
2022/06/01 08:15:22;;;;;;;2.25;1.70;;;;;;;15.56;64.25;99649.47;5033704;28;20045;-88
2022/06/01 08:17:48;;;;;;;3.60;1.73;;;;;;;15.47;63.60;99650.53;5117700;23;20045;-89
2022/06/01 08:20:16;;;;;;;4.15;1.90;;;;;;;15.38;63.89;99657.00;5046508;28;20033;-88
2022/06/01 08:22:42;;;;;;;2.58;1.30;;;;;;;15.54;64.02;99664.16;5043279;28;20040;-88
2022/06/01 08:25:10;;;;;;;4.55;1.67;;;;;;;15.50;64.38;99658.28;5050837;28;20036;-88
2022/06/01 08:27:35;;;;;;;5.13;1.90;;;;;;;15.43;64.08;99666.22;5026643;28;20131;-88
2022/06/01 08:30:01;;;;;;;2.55;1.40;;;;;;;15.57;64.48;99669.19;5031261;28;20369;-96
2022/06/01 08:32:26;;;;;;;3.88;1.70;;;;;;;15.63;64.18;99660.44;5049443;28;20205;-88
2022/06/01 08:34:52;;;;;;;2.58;1.40;;;;;;;15.60;63.62;99660.78;5055420;28;20059;-88
2022/06/01 08:37:17;;;;;;;2.60;1.50;;;;;;;15.61;63.22;99667.88;5047185;28;20035;-87
2022/06/01 08:39:43;;;;;;;3.92;1.58;;;;;;;15.71;63.77;99668.47;5048445;28;20083;-88
2022/06/01 08:42:15;;;;;;;2.22;1.60;;;;;;;15.78;63.60;99663.22;5047218;28;20025;-88
2022/06/01 08:44:43;;;;;;;4.25;1.83;;;;;;;15.71;62.52;99663.94;5055951;28;20478;-87
2022/06/01 08:47:23;;;;;;;3.13;1.65;;;;;;;15.68;63.20;99656.19;5053652;28;20020;-88
2022/06/01 08:49:49;;;;;;;3.80;1.63;;;;;;;15.82;63.22;99656.44;5046147;28;20052;-88
2022/06/01 08:52:18;;;;;;;3.90;1.55;;;;;;;15.79;62.58;99660.34;5040771;22;20312;-87
2022/06/01 08:54:44;;;;;;;3.20;1.30;;;;;;;15.83;63.49;99667.06;5081370;28;20037;-88
2022/06/01 08:57:28;;;;;;;3.45;1.17;;;;;;;15.76;62.83;99662.56;5065047;28;20045;-88
2022/06/01 09:00:14;;;;;;;4.03;1.70;;;;;;;15.63;61.12;99663.16;5060168;28;20036;-84
2022/06/01 09:02:58;;;;;;;1.77;1.25;;;;;;;15.58;61.84;99660.09;5061771;28;20503;-84
2022/06/01 09:05:32;;;;;;;1.48;1.38;;;;;;;15.60;62.31;99666.16;5071752;28;20029;-84
2022/06/01 09:08:25;;;;;;;1.98;1.30;;;;;;;15.71;62.37;99669.31;5058148;28;20414;-85
2022/06/01 09:11:12;;;;;;;2.88;1.10;;;;;;;15.87;62.43;99664.84;5075556;28;20741;-86
2022/06/01 09:13:39;;;;;;;2.70;1.60;;;;;;;15.98;61.65;99659.84;5077830;28;20032;-87
2022/06/01 09:16:15;;;;;;;3.05;1.30;;;;;;;15.96;62.19;99656.50;5067703;28;20401;-87
2022/06/01 09:18:44;;;;;;;4.00;1.40;;;;;;;16.02;62.21;99663.88;5059123;28;20027;-87
2022/06/01 09:24:07;;;;;;;2.53;1.20;;;;;;;16.03;62.14;99664.72;5064009;28;20044;-88
2022/06/01 09:27:11;;;;;;;2.28;1.33;;;;;;;16.01;62.36;99670.28;5045356;28;20026;-87
2022/06/01 09:29:50;;;;;;;1.95;1.30;;;;;;;16.00;61.72;99671.31;5064852;28;20037;-87
2022/06/01 09:32:55;;;;;;;3.42;2.13;;;;;;;15.96;61.11;99677.25;5067685;28;20039;-96
2022/06/01 09:35:27;;;;;;;4.47;1.90;;;;;;;15.88;60.87;99671.91;5062538;28;20028;-86
2022/06/01 09:37:53;;;;;;;2.63;1.60;;;;;;;15.90;61.86;99670.72;5080324;28;20028;-87
2022/06/01 09:40:30;;;;;;;2.95;1.30;;;;;;;16.00;62.65;99673.16;5046963;28;20025;-87
2022/06/01 09:42:59;;;;;;;5.00;1.40;;;;;;;16.08;61.42;99673.09;5061725;28;20104;-87
2022/06/01 09:45:28;;;;;;;3.63;1.60;;;;;;;16.15;61.82;99665.16;5062897;28;20025;-87
2022/06/01 09:48:13;;;;;;;3.65;1.88;;;;;;;16.12;61.73;99673.59;5064035;28;20108;-87
2022/06/01 09:50:41;;;;;;;2.58;1.50;;;;;;;16.06;61.15;99670.56;5049640;28;20470;-85
2022/06/01 09:53:23;;;;;;;2.10;1.20;;;;;;;16.12;61.32;99666.34;5039341;28;20055;-86
2022/06/01 09:55:58;;;;;;;2.80;1.48;;;;;;;16.13;61.81;99669.88;5048672;28;20071;-86
2022/06/01 10:07:05;;;;;;;2.58;1.35;;;;;;;16.19;61.29;99674.56;5059084;28;20043;-85
2022/06/01 10:09:32;;;;;;;3.60;1.80;;;;;;;16.13;59.23;99683.38;5057480;28;20052;-88
2022/06/01 10:11:58;;;;;;;2.72;1.48;;;;;;;16.16;59.80;99675.75;5048257;28;20035;-87
2022/06/01 10:14:32;;;;;;;2.90;1.70;;;;;;;16.12;59.75;99676.31;5048592;28;20033;-78
2022/06/01 10:17:14;;;;;;;1.50;1.40;;;;;;;16.19;59.65;99678.09;5041723;28;20063;-89
2022/06/01 10:20:16;;;;;;;2.20;1.70;;;;;;;16.30;59.89;99677.66;5012953;28;20393;-89
2022/06/01 10:22:50;;;;;;;2.40;1.40;;;;;;;16.29;59.78;99675.97;5034076;28;20029;-89
2022/06/01 10:25:31;;;;;;;2.40;1.40;;;;;;;16.29;59.22;99672.44;5041670;28;20663;-89
2022/06/01 10:28:06;;;;;;;3.17;1.60;;;;;;;16.31;58.61;99678.50;5026989;28;20055;-89
2022/06/01 10:30:36;;;;;;;3.92;1.75;;;;;;;16.30;57.86;99677.66;5033424;28;20075;-89
2022/06/01 10:33:27;;;;;;;3.65;1.77;;;;;;;16.29;58.38;99688.63;5045311;28;20036;-88
2022/06/01 10:35:58;;;;;;;1.63;1.25;;;;;;;16.26;58.59;99683.59;5047202;28;20123;-89
2022/06/01 10:38:31;;;;;;;1.92;1.25;;;;;;;16.29;58.87;99680.53;5046963;28;20486;-89
2022/06/01 10:41:15;;;;;;;1.65;1.38;;;;;;;16.35;59.22;99682.50;5032817;28;20021;-88
2022/06/01 10:44:04;;;;;;;2.45;1.90;;;;;;;16.38;58.30;99687.53;5063319;28;20095;-89
2022/06/01 10:46:44;;;;;;;3.08;1.52;;;;;;;16.44;59.28;99683.28;5046212;28;20029;-89
2022/06/01 10:49:50;;;;;;;2.58;1.30;;;;;;;16.54;59.59;99689.25;5046341;28;20024;-89
2022/06/01 10:52:23;;;;;;;1.67;1.10;;;;;;;16.53;58.33;99674.91;4963741;28;20572;-76
2022/06/01 10:55:08;;;;;;;2.53;1.30;;;;;;;16.51;58.59;99679.66;5043907;28;20135;-90
2022/06/01 10:57:37;;;;;;;2.47;1.20;;;;;;;16.48;58.42;99680.03;5035226;28;20033;-92
2022/06/01 11:00:06;;;;;;;2.30;1.20;;;;;;;16.43;57.05;99679.75;5034306;28;20451;-92
2022/06/01 11:02:49;;;;;;;;;;;;;;;16.41;57.64;99681.78;5047463;28;20378;-84
2022/06/01 11:05:36;;;;;;;2.35;1.70;;;;;;;16.41;57.00;99673.69;5049369;28;19924;-94
2022/06/01 11:08:12;;;;;;;2.35;1.23;;;;;;;16.51;58.50;99676.13;5055054;28;20902;-86
2022/06/01 11:11:15;;;;;;;1.67;1.35;;;;;;;16.47;57.32;99681.03;5035896;28;20044;-86
2022/06/01 11:14:09;;;;;;;5.57;1.50;;;;;;;16.51;57.24;99678.81;5072619;28;20025;-91
2022/06/01 11:17:04;;;;;;;2.30;1.40;;;;;;;16.59;58.20;99676.91;5047743;28;20029;-90
2022/06/01 11:22:12;;;;;;;2.78;1.52;;;;;;;16.54;53.24;99673.06;5439474;23;20056;-96
2022/06/01 11:24:58;;;;;;;2.73;1.27;;;;;;;16.60;57.06;99683.16;5033056;28;20045;-90
2022/06/01 11:27:55;;;;;;;1.88;1.23;;;;;;;16.63;56.99;99671.97;5037586;28;20789;-87
2022/06/01 11:30:24;;;;;;;2.13;1.10;;;;;;;16.59;55.88;99676.06;5028303;28;20036;-90
2022/06/01 11:32:55;;;;;;;3.30;1.45;;;;;;;16.63;54.69;99678.22;5022347;28;20032;-88
2022/06/01 11:35:33;;;;;;;2.22;1.30;;;;;;;16.64;53.65;99676.34;5016686;28;20024;-85
2022/06/01 11:38:10;;;;;;;3.05;1.40;;;;;;;16.64;54.11;99671.78;5045588;28;20026;-85
2022/06/01 11:40:49;;;;;;;2.92;1.20;;;;;;;16.71;55.24;99687.28;5034940;28;20061;-90
2022/06/01 11:43:31;;;;;;;2.05;1.00;;;;;;;16.80;55.08;99680.78;5030346;28;20028;-94
2022/06/01 11:46:10;;;;;;;1.98;1.10;;;;;;;16.86;56.28;99664.66;5031195;28;20029;-85
2022/06/01 11:48:38;;;;;;;2.17;1.20;;;;;;;16.91;56.03;99664.94;5036975;28;20044;-85
2022/06/01 11:51:21;;;;;;;1.38;1.10;;;;;;;16.98;56.46;99673.16;5034713;28;20021;-89
2022/06/01 11:54:05;;;;;;;1.55;1.17;;;;;;;17.04;56.38;99661.63;5074109;28;20478;-88
2022/06/01 11:56:30;;;;;;;2.13;1.20;;;;;;;17.04;55.77;99660.78;5067977;28;20033;-85
2022/06/01 11:59:28;;;;;;;1.80;1.23;;;;;;;17.04;56.37;99668.88;5044682;28;20120;-96
2022/06/01 12:02:40;;;;;;;1.15;0.93;;;;;;;17.04;56.08;99660.78;5040962;28;20044;-96
2022/06/01 12:05:19;;;;;;;1.63;1.23;;;;;;;17.07;52.38;99655.84;5059229;28;20028;-85
2022/06/01 12:07:49;;;;;;;2.58;1.20;;;;;;;17.10;51.89;99657.31;5060836;28;20033;-85
2022/06/01 12:10:17;;;;;;;1.42;1.27;;;;;;;17.22;50.56;99661.22;5066189;28;20020;-87
2022/06/01 12:12:47;;;;;;;1.83;1.10;;;;;;;17.26;50.97;99660.66;5045806;28;20036;-85
2022/06/01 12:15:29;;;;;;;2.42;1.08;;;;;;;17.23;51.82;99661.03;5056885;28;20033;-95
2022/06/01 12:17:59;;;;;;;1.38;1.13;;;;;;;17.22;52.16;99653.97;5076973;28;20986;-90
2022/06/01 12:20:33;;;;;;;3.10;1.00;;;;;;;17.24;51.32;99661.88;5038689;28;20111;-86
2022/06/01 12:28:51;;;;;;;2.33;0.98;;;;;;;17.25;51.26;99658.97;5075705;28;20059;-86
2022/06/01 12:31:34;;;;;;;1.40;0.90;;;;;;;17.23;51.65;99663.75;5066671;28;20056;-83
2022/06/01 12:34:18;;;;;;;2.03;1.08;;;;;;;17.16;52.63;99668.22;5026364;28;20530;-86